createdAt,value
2022-10-18T00:00:32.110Z,6.03
2022-10-18T00:05:25.929Z,5.93
2022-10-18T00:10:18.499Z,6.17
2022-10-18T00:15:11.727Z,6.60
2022-10-18T00:20:04.893Z,6.20
2022-10-18T00:24:58.733Z,6.17
2022-10-18T00:29:53.153Z,6.20
2022-10-18T00:34:45.671Z,6.00
2022-10-18T00:39:38.188Z,6.90
2022-10-18T00:44:49.344Z,5.77
2022-10-18T00:49:44.729Z,5.30
2022-10-18T00:54:39.513Z,5.30
2022-10-18T00:59:32.036Z,6.13
2022-10-18T01:04:24.737Z,6.10
2022-10-18T01:09:22.331Z,6.47
2022-10-18T01:14:27.452Z,6.03
2022-10-18T01:19:40.196Z,6.70
2022-10-18T01:24:46.597Z,6.87
2022-10-18T01:29:44.562Z,6.33
2022-10-18T01:34:40.907Z,5.70
2022-10-18T01:39:36.096Z,6.23
2022-10-18T01:44:30.082Z,5.90
2022-10-18T01:49:22.597Z,6.37
2022-10-18T01:54:17.937Z,6.30
2022-10-18T01:59:20.462Z,6.37
2022-10-18T02:04:20.517Z,6.57
2022-10-18T02:09:16.763Z,5.17
2022-10-18T02:14:12.244Z,5.60
2022-10-18T02:19:07.589Z,5.37
2022-10-18T02:24:00.967Z,5.00
2022-10-18T02:28:53.597Z,5.43
2022-10-18T02:33:50.001Z,5.13
2022-10-18T02:38:42.899Z,5.50
2022-10-18T02:43:35.652Z,5.47
2022-10-18T02:48:28.166Z,6.20
2022-10-18T02:53:22.015Z,5.17
2022-10-18T02:58:14.694Z,5.50
2022-10-18T03:03:07.201Z,6.10
2022-10-18T03:07:59.707Z,4.90
2022-10-18T03:12:53.561Z,5.40
2022-10-18T03:17:46.058Z,4.90
2022-10-18T03:22:38.552Z,5.50
2022-10-18T03:27:31.415Z,5.57
2022-10-18T03:32:25.527Z,5.50
2022-10-18T03:37:18.021Z,6.77
2022-10-18T03:42:10.524Z,6.00
2022-10-18T03:47:03.007Z,6.00
2022-10-18T03:51:56.839Z,6.60
2022-10-18T03:56:49.352Z,6.43
2022-10-18T04:01:41.940Z,6.30
2022-10-18T04:06:34.458Z,6.30
2022-10-18T04:11:28.366Z,5.90
2022-10-18T04:16:20.900Z,5.90
2022-10-18T04:21:13.438Z,5.60
2022-10-18T04:26:06.053Z,5.70
2022-10-18T04:30:59.901Z,5.93
2022-10-18T04:35:53.215Z,6.10
2022-10-18T04:40:45.764Z,6.10
2022-10-18T04:45:38.328Z,5.60
2022-10-18T04:50:32.313Z,5.80
2022-10-18T04:55:24.836Z,6.57
2022-10-18T05:00:17.425Z,6.77
2022-10-18T05:05:11.787Z,5.70
2022-10-18T05:10:08.621Z,6.77
2022-10-18T05:15:01.150Z,7.00
2022-10-18T05:19:53.714Z,6.70
2022-10-18T05:24:46.386Z,6.20
2022-10-18T05:29:40.361Z,7.13
2022-10-18T05:34:33.117Z,6.07
2022-10-18T05:39:26.246Z,7.20
2022-10-18T05:44:18.960Z,5.63
2022-10-18T05:49:13.392Z,6.43
2022-10-18T05:54:05.949Z,6.33
2022-10-18T05:58:58.496Z,6.57
2022-10-18T06:03:51.589Z,6.10
2022-10-18T06:08:45.544Z,5.97
2022-10-18T06:13:40.709Z,5.70
2022-10-18T06:18:33.277Z,5.90
2022-10-18T06:23:25.920Z,6.43
2022-10-18T06:28:19.955Z,6.40
2022-10-18T06:33:12.874Z,7.50
2022-10-18T06:38:06.250Z,6.93
2022-10-18T06:43:19.460Z,7.00
2022-10-18T06:48:14.734Z,6.57
2022-10-18T06:53:08.656Z,7.00
2022-10-18T06:58:01.212Z,7.13
2022-10-18T07:02:53.768Z,7.00
2022-10-18T07:07:47.659Z,6.70
2022-10-18T07:12:40.214Z,7.40
2022-10-18T07:17:32.895Z,7.30
2022-10-18T07:22:30.049Z,11.83
2022-10-18T07:27:24.175Z,8.50
2022-10-18T07:32:16.708Z,10.80
2022-10-18T07:37:10.050Z,21.20
2022-10-18T07:42:02.597Z,12.90
2022-10-18T07:46:56.583Z,7.30
2022-10-18T07:51:49.069Z,7.70
2022-10-18T07:56:41.624Z,7.97
2022-10-18T08:01:35.284Z,7.47
2022-10-18T08:06:29.287Z,6.23
2022-10-18T08:11:23.301Z,6.80
2022-10-18T08:16:17.753Z,6.20
2022-10-18T08:21:11.204Z,7.30
2022-10-18T08:26:05.651Z,8.90
2022-10-18T08:30:58.168Z,7.40
2022-10-18T08:35:56.886Z,9.10
2022-10-18T08:40:49.589Z,6.60
2022-10-18T08:45:44.275Z,5.40
2022-10-18T08:50:38.732Z,5.93
2022-10-18T08:55:36.223Z,5.77
2022-10-18T09:00:34.396Z,5.80
2022-10-18T09:05:30.820Z,5.33
2022-10-18T09:10:33.896Z,5.57
2022-10-18T09:15:30.839Z,5.00
2022-10-18T09:20:24.363Z,5.40
2022-10-18T09:25:20.178Z,5.30
2022-10-18T09:30:20.453Z,5.73
2022-10-18T09:35:14.866Z,4.97
2022-10-18T09:40:16.611Z,5.03
2022-10-18T09:45:21.237Z,5.33
2022-10-18T09:50:17.842Z,4.63
2022-10-18T09:55:14.434Z,4.53
2022-10-18T10:00:10.245Z,4.37
2022-10-18T10:05:04.304Z,4.30
2022-10-18T10:09:57.962Z,4.27
2022-10-18T10:14:50.521Z,3.97
2022-10-18T10:19:58.056Z,3.93
2022-10-18T10:24:53.977Z,3.60
2022-10-18T10:30:07.567Z,3.90
2022-10-18T10:35:00.537Z,4.17
2022-10-18T10:40:17.860Z,3.80
2022-10-18T10:45:14.084Z,3.70
2022-10-18T10:50:10.822Z,4.00
2022-10-18T10:55:23.666Z,3.70
2022-10-18T11:00:30.899Z,3.17
2022-10-18T11:05:25.743Z,3.33
2022-10-18T11:10:20.301Z,3.07
2022-10-18T11:15:20.315Z,4.53
2022-10-18T11:20:24.035Z,3.40
2022-10-18T11:25:17.995Z,2.90
2022-10-18T11:30:23.188Z,3.57
2022-10-18T11:35:31.254Z,3.23
2022-10-18T11:40:33.713Z,3.47
2022-10-18T11:50:32.413Z,3.23
2022-10-18T11:55:33.349Z,3.43
2022-10-18T12:00:30.395Z,3.23
2022-10-18T12:05:24.498Z,3.40
2022-10-18T12:10:26.334Z,3.77
2022-10-18T12:15:32.934Z,3.40
2022-10-18T12:20:28.082Z,3.00
2022-10-18T12:25:20.746Z,3.20
2022-10-18T12:30:19.159Z,3.10
2022-10-18T12:35:15.681Z,3.37
2022-10-18T12:40:15.780Z,3.40
2022-10-18T12:45:20.125Z,3.70
2022-10-18T12:50:26.043Z,3.10
2022-10-18T12:55:30.420Z,4.13
2022-10-18T13:00:37.834Z,3.90
2022-10-18T13:05:54.521Z,4.40
2022-10-18T13:11:09.087Z,4.13
2022-10-18T13:16:04.322Z,4.87
2022-10-18T13:21:01.377Z,4.10
2022-10-18T13:26:01.915Z,3.97
2022-10-18T13:30:56.843Z,3.60
2022-10-18T13:35:55.255Z,3.93
2022-10-18T13:41:00.640Z,5.70
2022-10-18T13:45:57.681Z,5.90
2022-10-18T13:50:50.976Z,4.80
2022-10-18T13:55:56.219Z,5.33
2022-10-18T14:00:53.481Z,5.30
2022-10-18T14:05:56.489Z,4.87
2022-10-18T14:11:02.048Z,4.47
2022-10-18T14:15:58.492Z,4.90
2022-10-18T14:21:12.739Z,4.73
2022-10-18T14:26:09.721Z,4.57
2022-10-18T14:31:04.418Z,4.80
2022-10-18T14:36:03.460Z,4.90
2022-10-18T14:41:05.468Z,4.53
2022-10-18T14:46:08.755Z,4.70
2022-10-18T14:51:04.498Z,4.63
2022-10-18T14:56:00.651Z,4.90
2022-10-18T15:00:54.207Z,5.10
2022-10-18T15:05:53.958Z,4.70
2022-10-18T15:10:48.742Z,5.27
2022-10-18T15:15:41.716Z,4.77
2022-10-18T15:20:35.208Z,4.60
2022-10-18T15:25:31.940Z,4.47
2022-10-18T15:30:28.051Z,4.60
2022-10-18T15:35:26.131Z,4.73
2022-10-18T15:40:38.397Z,4.67
2022-10-18T15:45:34.585Z,4.50
2022-10-18T15:50:37.701Z,4.47
2022-10-18T15:55:45.666Z,5.00
2022-10-18T16:00:39.589Z,4.40
2022-10-18T16:05:32.141Z,4.77
2022-10-18T16:10:26.204Z,4.30
2022-10-18T16:15:18.991Z,5.13
2022-10-18T16:20:19.999Z,5.10
2022-10-18T16:25:12.535Z,5.03
2022-10-18T16:30:11.507Z,4.90
2022-10-18T16:35:04.103Z,5.73
2022-10-18T16:39:58.082Z,5.23
2022-10-18T16:44:50.733Z,5.10
2022-10-18T16:49:45.083Z,4.47
2022-10-18T16:54:37.586Z,4.67
2022-10-18T16:59:32.289Z,4.20
2022-10-18T17:04:24.789Z,4.00
2022-10-18T17:09:17.333Z,4.17
2022-10-18T17:14:09.866Z,3.93
2022-10-18T17:19:04.603Z,3.87
2022-10-18T17:24:00.480Z,3.70
2022-10-18T17:28:53.646Z,4.13
2022-10-18T17:33:46.344Z,4.17
2022-10-18T17:38:43.073Z,4.57
2022-10-18T17:43:37.232Z,4.90
2022-10-18T17:48:29.890Z,5.07
2022-10-18T17:53:25.853Z,5.60
2022-10-18T17:58:19.713Z,5.07
2022-10-18T18:03:13.459Z,5.50
2022-10-18T18:08:06.186Z,4.77
2022-10-18T18:12:58.708Z,4.80
2022-10-18T18:17:57.230Z,4.73
2022-10-18T18:22:51.359Z,5.17
2022-10-18T18:27:43.943Z,6.50
2022-10-18T18:32:36.492Z,5.90
2022-10-18T18:37:30.474Z,5.60
2022-10-18T18:42:23.530Z,6.00
2022-10-18T18:52:08.938Z,7.93
2022-10-18T18:57:05.225Z,9.67
2022-10-18T19:01:57.800Z,9.60
2022-10-18T19:06:50.340Z,10.00
2022-10-18T19:11:42.894Z,9.80
2022-10-18T19:16:37.767Z,11.60
2022-10-18T19:21:31.229Z,11.10
2022-10-18T19:26:28.309Z,12.50
2022-10-18T19:31:21.039Z,12.47
2022-10-18T19:36:14.929Z,11.40
2022-10-18T19:41:07.481Z,10.90
2022-10-18T19:46:02.572Z,10.03
2022-10-18T19:50:55.163Z,11.17
2022-10-18T19:55:49.086Z,17.80
2022-10-18T20:00:41.620Z,20.80
2022-10-18T20:05:34.219Z,16.47
2022-10-18T20:10:26.764Z,13.27
2022-10-18T20:15:20.670Z,13.30
2022-10-18T20:20:13.261Z,15.73
2022-10-18T20:25:06.074Z,15.03
2022-10-18T20:29:58.562Z,15.87
2022-10-18T20:34:52.544Z,17.20
2022-10-18T20:39:45.545Z,18.80
2022-10-18T20:44:40.887Z,21.40
2022-10-18T20:49:33.396Z,22.97
2022-10-18T20:54:27.301Z,19.63
2022-10-18T20:59:19.826Z,14.93
2022-10-18T21:04:12.402Z,15.37
2022-10-18T21:09:06.021Z,17.60
2022-10-18T21:14:02.595Z,18.00
2022-10-18T21:18:55.209Z,16.90
2022-10-18T21:23:48.028Z,17.40
2022-10-18T21:28:40.578Z,16.97
2022-10-18T21:33:34.481Z,17.07
2022-10-18T21:38:27.032Z,17.10
2022-10-18T21:43:19.535Z,16.77
2022-10-18T21:48:12.226Z,16.07
2022-10-18T21:53:06.180Z,16.80
2022-10-18T21:57:58.707Z,17.27
2022-10-18T22:03:06.201Z,21.90
2022-10-18T22:07:58.769Z,18.17
2022-10-18T22:12:52.676Z,14.40
2022-10-18T22:17:45.232Z,15.30
2022-10-18T22:22:37.830Z,17.47
2022-10-18T22:27:30.716Z,16.27
2022-10-18T22:32:25.237Z,14.60
2022-10-18T22:37:17.794Z,14.60
2022-10-18T22:42:10.339Z,19.60
2022-10-18T22:47:03.117Z,18.20
2022-10-18T22:51:57.127Z,17.43
2022-10-18T22:56:50.199Z,16.30
2022-10-18T23:01:42.742Z,18.13
2022-10-18T23:06:36.082Z,19.77
2022-10-18T23:11:30.070Z,23.53
2022-10-18T23:16:22.800Z,19.63
2022-10-18T23:21:15.486Z,18.37
2022-10-18T23:26:10.342Z,17.90
2022-10-18T23:31:07.999Z,18.20
2022-10-18T23:36:00.561Z,17.63
2022-10-18T23:40:53.121Z,17.50
2022-10-18T23:50:40.467Z,19.27
2022-10-18T23:55:33.058Z,18.60
